createdAt,value
2023-03-18T00:01:40.031Z,98224.03
2023-03-18T00:04:08.287Z,98219.63
2023-03-18T00:06:38.162Z,98227.06
2023-03-18T00:09:07.051Z,98224.59
2023-03-18T00:11:35.955Z,98217.97
2023-03-18T00:14:04.522Z,98220.19
2023-03-18T00:16:32.455Z,98220.06
2023-03-18T00:19:02.006Z,98223.94
2023-03-18T00:21:30.567Z,98215.41
2023-03-18T00:23:58.973Z,98217.19
2023-03-18T00:26:29.226Z,98224.41
2023-03-18T00:28:58.291Z,98222.25
2023-03-18T00:31:29.838Z,98228.13
2023-03-18T00:33:58.992Z,98226.78
2023-03-18T00:36:28.478Z,98239.78
2023-03-18T00:38:58.322Z,98245.44
2023-03-18T00:41:27.350Z,98245.66
2023-03-18T00:43:56.616Z,98252.50
2023-03-18T00:46:26.343Z,98250.13
2023-03-18T00:48:56.485Z,98252.78
2023-03-18T00:51:26.558Z,98264.44
2023-03-18T00:53:57.765Z,98262.75
2023-03-18T00:56:30.886Z,98266.97
2023-03-18T00:59:00.078Z,98257.94
2023-03-18T01:01:31.369Z,98266.00
2023-03-18T01:04:01.122Z,98254.94
2023-03-18T01:06:32.492Z,98264.06
2023-03-18T01:09:02.670Z,98252.88
2023-03-18T01:11:31.377Z,98256.97
2023-03-18T01:14:00.644Z,98247.72
2023-03-18T01:16:30.024Z,98254.94
2023-03-18T01:18:58.382Z,98257.56
2023-03-18T01:21:26.784Z,98257.81
2023-03-18T01:24:00.479Z,98256.25
2023-03-18T01:26:31.037Z,98259.00
2023-03-18T01:29:00.961Z,98262.16
2023-03-18T01:31:31.013Z,98252.81
2023-03-18T01:34:05.696Z,98258.41
2023-03-18T01:36:44.544Z,98255.78
2023-03-18T01:39:12.572Z,98242.81
2023-03-18T01:41:42.359Z,98248.22
2023-03-18T01:44:14.894Z,98241.25
2023-03-18T01:46:46.640Z,98238.81
2023-03-18T01:49:19.098Z,98242.22
2023-03-18T01:51:53.432Z,98241.00
2023-03-18T01:54:23.917Z,98244.63
2023-03-18T01:56:54.036Z,98237.25
2023-03-18T01:59:26.419Z,98235.03
2023-03-18T02:01:59.300Z,98246.53
2023-03-18T02:04:33.630Z,98252.91
2023-03-18T02:07:02.355Z,98245.38
2023-03-18T02:09:30.894Z,98243.44
2023-03-18T02:12:03.784Z,98247.53
2023-03-18T02:14:32.425Z,98250.41
2023-03-18T02:17:04.159Z,98243.44
2023-03-18T02:19:51.688Z,98246.78
2023-03-18T02:22:27.505Z,98243.91
2023-03-18T02:25:11.143Z,98240.53
2023-03-18T02:27:42.808Z,98244.50
2023-03-18T02:30:15.652Z,98244.50
2023-03-18T02:32:48.368Z,98254.00
2023-03-18T02:35:16.280Z,98251.34
2023-03-18T02:37:44.325Z,98255.13
2023-03-18T02:40:19.771Z,98251.78
2023-03-18T02:42:49.951Z,98255.91
2023-03-18T02:45:31.787Z,98246.06
2023-03-18T02:48:18.416Z,98255.44
2023-03-18T02:50:50.092Z,98266.25
2023-03-18T02:53:21.139Z,98265.75
2023-03-18T02:55:49.086Z,98267.66
2023-03-18T02:58:18.624Z,98262.63
2023-03-18T03:00:47.982Z,98269.13
2023-03-18T03:03:16.497Z,98264.13
2023-03-18T03:05:44.445Z,98265.22
2023-03-18T03:08:12.528Z,98261.47
2023-03-18T03:10:43.689Z,98272.72
2023-03-18T03:13:12.135Z,98274.31
2023-03-18T03:15:42.833Z,98284.75
2023-03-18T03:18:11.597Z,98282.75
2023-03-18T03:20:39.681Z,98276.00
2023-03-18T03:23:09.974Z,98286.06
2023-03-18T03:25:38.769Z,98291.03
2023-03-18T03:28:07.446Z,98286.50
2023-03-18T03:30:36.804Z,98292.78
2023-03-18T03:33:06.457Z,98290.41
2023-03-18T03:35:34.604Z,98290.59
2023-03-18T03:38:03.081Z,98298.69
2023-03-18T03:40:32.020Z,98297.22
2023-03-18T03:43:00.091Z,98305.78
2023-03-18T03:45:28.760Z,98305.31
2023-03-18T03:47:57.840Z,98309.56
2023-03-18T03:50:27.350Z,98305.09
2023-03-18T03:52:56.410Z,98305.38
2023-03-18T03:55:25.398Z,98294.53
2023-03-18T03:57:56.643Z,98299.13
2023-03-18T04:00:26.113Z,98299.41
2023-03-18T04:02:54.403Z,98298.47
2023-03-18T04:05:25.611Z,98299.59
2023-03-18T04:07:55.511Z,98298.75
2023-03-18T04:10:36.526Z,98305.25
2023-03-18T04:13:06.293Z,98306.56
2023-03-18T04:15:34.979Z,98309.19
2023-03-18T04:18:10.677Z,98309.97
2023-03-18T04:20:39.870Z,98311.19
2023-03-18T04:23:17.690Z,98302.84
2023-03-18T04:25:45.653Z,98317.16
2023-03-18T04:28:14.157Z,98314.06
2023-03-18T04:30:42.248Z,98316.75
2023-03-18T04:33:15.221Z,98314.38
2023-03-18T04:35:43.925Z,98310.91
2023-03-18T04:38:13.956Z,98318.13
2023-03-18T04:40:43.891Z,98318.44
2023-03-18T04:43:11.804Z,98318.22
2023-03-18T04:45:40.251Z,98321.75
2023-03-18T04:48:08.372Z,98320.75
2023-03-18T04:50:40.850Z,98330.69
2023-03-18T04:53:12.760Z,98316.31
2023-03-18T04:55:41.180Z,98313.03
2023-03-18T04:58:12.817Z,98318.03
2023-03-18T05:00:46.166Z,98326.25
2023-03-18T05:03:22.900Z,98329.47
2023-03-18T05:05:51.453Z,98319.38
2023-03-18T05:08:24.067Z,98320.88
2023-03-18T05:10:53.441Z,98318.66
2023-03-18T05:13:22.780Z,98310.94
2023-03-18T05:15:50.796Z,98317.59
2023-03-18T05:18:19.246Z,98319.09
2023-03-18T05:20:50.427Z,98334.25
2023-03-18T05:23:19.978Z,98323.81
2023-03-18T05:25:54.769Z,98334.25
2023-03-18T05:28:27.045Z,98330.16
2023-03-18T05:31:24.770Z,98330.66
2023-03-18T05:33:53.758Z,98326.47
2023-03-18T05:36:26.544Z,98334.91
2023-03-18T05:39:01.118Z,98337.81
2023-03-18T05:41:29.305Z,98334.41
2023-03-18T05:43:59.314Z,98332.97
2023-03-18T05:46:29.020Z,98339.47
2023-03-18T05:49:13.316Z,98335.59
2023-03-18T05:51:54.380Z,98331.25
2023-03-18T05:54:34.011Z,98333.16
2023-03-18T05:57:02.448Z,98331.41
2023-03-18T05:59:32.023Z,98343.69
2023-03-18T06:02:01.686Z,98338.72
2023-03-18T06:04:29.814Z,98331.78
2023-03-18T06:06:58.489Z,98333.16
2023-03-18T06:09:27.285Z,98335.59
2023-03-18T06:11:55.370Z,98342.63
2023-03-18T06:14:29.284Z,98336.31
2023-03-18T06:17:02.268Z,98339.59
2023-03-18T06:19:31.873Z,98339.25
2023-03-18T06:21:59.851Z,98343.78
2023-03-18T06:24:28.691Z,98352.75
2023-03-18T06:26:57.881Z,98352.53
2023-03-18T06:29:26.693Z,98348.63
2023-03-18T06:31:58.508Z,98352.34
2023-03-18T06:34:29.143Z,98359.53
2023-03-18T06:36:59.608Z,98359.22
2023-03-18T06:39:28.612Z,98356.34
2023-03-18T06:41:57.801Z,98355.94
2023-03-18T06:44:32.093Z,98353.09
2023-03-18T06:47:09.945Z,98363.41
2023-03-18T06:49:44.668Z,98355.94
2023-03-18T06:52:19.348Z,98361.59
2023-03-18T06:54:49.442Z,98356.56
2023-03-18T06:57:18.734Z,98357.72
2023-03-18T06:59:48.472Z,98355.41
2023-03-18T07:02:17.906Z,98356.34
2023-03-18T07:04:48.377Z,98358.97
2023-03-18T07:07:16.982Z,98361.34
2023-03-18T07:09:45.917Z,98365.44
2023-03-18T07:12:14.986Z,98360.34
2023-03-18T07:14:45.351Z,98366.19
2023-03-18T07:17:14.643Z,98364.63
2023-03-18T07:19:42.999Z,98363.41
2023-03-18T07:22:17.290Z,98367.59
2023-03-18T07:24:46.797Z,98366.69
2023-03-18T07:27:16.919Z,98367.53
2023-03-18T07:29:45.126Z,98367.94
2023-03-18T07:32:14.030Z,98369.50
2023-03-18T07:34:44.659Z,98372.59
2023-03-18T07:37:13.626Z,98375.16
2023-03-18T07:39:43.619Z,98379.16
2023-03-18T07:42:13.080Z,98381.94
2023-03-18T07:44:46.978Z,98370.25
2023-03-18T07:47:15.973Z,98374.31
2023-03-18T07:52:55.429Z,98373.19
2023-03-18T07:56:20.209Z,98367.53
2023-03-18T07:58:49.609Z,98367.25
2023-03-18T08:01:18.534Z,98369.47
2023-03-18T08:04:16.767Z,98370.28
2023-03-18T08:06:52.609Z,98374.44
2023-03-18T08:09:21.467Z,98369.53
2023-03-18T08:11:49.746Z,98368.66
2023-03-18T08:14:19.130Z,98369.34
2023-03-18T08:16:47.258Z,98376.22
2023-03-18T08:19:15.263Z,98380.22
2023-03-18T08:21:44.465Z,98377.88
2023-03-18T08:24:13.021Z,98379.19
2023-03-18T08:26:41.199Z,98384.41
2023-03-18T08:29:09.380Z,98379.50
2023-03-18T08:31:39.243Z,98376.13
2023-03-18T08:34:08.213Z,98375.22
2023-03-18T08:36:36.986Z,98370.69
2023-03-18T08:39:05.931Z,98370.69
2023-03-18T08:41:33.818Z,98368.00
2023-03-18T08:44:11.033Z,98372.63
2023-03-18T08:46:54.229Z,98371.69
2023-03-18T08:49:29.183Z,98370.16
2023-03-18T08:52:01.791Z,98369.81
2023-03-18T08:54:30.196Z,98367.38
2023-03-18T08:57:02.993Z,98362.63
2023-03-18T08:59:32.329Z,98357.44
2023-03-18T09:02:09.643Z,98356.31
2023-03-18T09:04:39.137Z,98358.22
2023-03-18T09:07:12.751Z,98359.63
2023-03-18T09:09:44.082Z,98356.44
2023-03-18T09:12:14.212Z,98352.28
2023-03-18T09:14:45.137Z,98358.50
2023-03-18T09:17:15.888Z,98351.59
2023-03-18T09:19:44.878Z,98339.34
2023-03-18T09:22:13.532Z,98338.38
2023-03-18T09:24:42.980Z,98344.38
2023-03-18T09:27:12.025Z,98342.25
2023-03-18T09:29:40.604Z,98342.47
2023-03-18T09:32:09.405Z,98341.25
2023-03-18T09:34:39.289Z,98332.66
2023-03-18T09:37:08.082Z,98331.66
2023-03-18T09:39:38.420Z,98328.84
2023-03-18T09:42:37.662Z,98334.94
2023-03-18T09:45:26.628Z,98333.09
2023-03-18T09:48:11.227Z,98337.94
2023-03-18T09:50:48.694Z,98335.34
2023-03-18T09:53:23.701Z,98333.38
2023-03-18T09:56:02.012Z,98329.19
2023-03-18T09:58:38.001Z,98324.69
2023-03-18T10:01:09.687Z,98317.59
2023-03-18T10:03:47.760Z,98318.06
2023-03-18T10:06:32.966Z,98312.91
2023-03-18T10:09:09.843Z,98304.13
2023-03-18T10:11:44.420Z,98305.34
2023-03-18T10:14:44.635Z,98301.25
2023-03-18T10:17:20.846Z,98309.34
2023-03-18T10:19:53.665Z,98311.38
2023-03-18T10:22:51.800Z,98306.78
2023-03-18T10:25:29.337Z,98306.69
2023-03-18T10:28:17.849Z,98307.94
2023-03-18T10:30:57.752Z,98303.44
2023-03-18T10:33:38.708Z,98301.22
2023-03-18T10:36:14.519Z,98305.25
2023-03-18T10:38:51.919Z,98302.91
2023-03-18T10:41:25.912Z,98308.03
2023-03-18T10:43:56.453Z,98304.22
2023-03-18T10:46:26.932Z,98297.50
2023-03-18T10:48:59.703Z,98295.91
2023-03-18T10:51:34.978Z,98303.88
2023-03-18T10:54:15.244Z,98290.25
2023-03-18T10:57:13.364Z,98287.78
2023-03-18T11:00:08.064Z,98287.13
2023-03-18T11:02:41.509Z,98280.41
2023-03-18T11:05:23.426Z,98271.81
2023-03-18T11:08:01.293Z,98278.59
2023-03-18T11:10:40.567Z,98273.50
2023-03-18T11:13:25.077Z,98275.09
2023-03-18T11:15:56.714Z,98264.09
2023-03-18T11:18:30.076Z,98267.69
2023-03-18T11:21:01.285Z,98260.13
2023-03-18T11:23:51.035Z,98267.09
2023-03-18T11:26:25.136Z,98257.22
2023-03-18T11:28:56.348Z,98263.75
2023-03-18T11:31:24.491Z,98249.22
2023-03-18T11:33:58.886Z,98252.09
2023-03-18T11:36:33.078Z,98241.31
2023-03-18T11:39:05.534Z,98245.44
2023-03-18T11:41:39.043Z,98247.97
2023-03-18T11:44:09.744Z,98249.41
2023-03-18T11:46:45.471Z,98239.41
2023-03-18T11:49:19.846Z,98234.94
2023-03-18T11:52:43.439Z,98232.38
2023-03-18T11:55:33.923Z,98228.78
2023-03-18T11:58:35.093Z,98219.13
2023-03-18T12:01:11.044Z,98217.66
2023-03-18T12:04:01.754Z,98217.00
2023-03-18T12:06:43.751Z,98210.25
2023-03-18T12:09:23.469Z,98201.28
2023-03-18T12:12:06.767Z,98201.75
2023-03-18T12:14:47.755Z,98193.13
2023-03-18T12:17:32.960Z,98197.34
2023-03-18T12:20:42.397Z,98193.44
2023-03-18T12:23:37.531Z,98187.63
2023-03-18T12:26:09.589Z,98185.38
2023-03-18T12:28:52.550Z,98180.78
2023-03-18T12:31:47.349Z,98178.03
2023-03-18T12:34:32.114Z,98176.09
2023-03-18T12:37:13.313Z,98175.63
2023-03-18T12:40:02.721Z,98157.44
2023-03-18T12:42:47.905Z,98171.34
2023-03-18T12:45:20.703Z,98179.38
2023-03-18T12:47:56.388Z,98167.63
2023-03-18T12:50:27.891Z,98166.06
2023-03-18T12:53:01.879Z,98164.50
2023-03-18T12:55:32.826Z,98161.44
2023-03-18T12:58:04.579Z,98167.28
2023-03-18T13:00:40.280Z,98168.03
2023-03-18T13:03:23.583Z,98156.88
2023-03-18T13:05:57.127Z,98159.63
2023-03-18T13:08:47.510Z,98159.00
2023-03-18T13:11:33.204Z,98155.94
2023-03-18T13:14:09.047Z,98149.97
2023-03-18T13:16:39.459Z,98155.47
2023-03-18T13:19:11.250Z,98152.94
2023-03-18T13:21:44.749Z,98142.50
2023-03-18T13:24:34.222Z,98149.97
2023-03-18T13:27:19.660Z,98153.63
2023-03-18T13:29:56.021Z,98149.06
2023-03-18T13:32:43.552Z,98151.19
2023-03-18T13:35:33.561Z,98146.28
2023-03-18T13:38:12.159Z,98146.09
2023-03-18T13:40:52.362Z,98148.16
2023-03-18T13:43:29.020Z,98154.44
2023-03-18T13:46:01.539Z,98150.78
2023-03-18T13:48:32.026Z,98144.22
2023-03-18T13:51:19.381Z,98154.41
2023-03-18T13:53:50.614Z,98149.34
2023-03-18T13:56:29.938Z,98154.53
2023-03-18T13:58:58.078Z,98149.50
2023-03-18T14:01:33.214Z,98157.38
2023-03-18T14:04:20.414Z,98150.63
2023-03-18T14:06:59.485Z,98152.75
2023-03-18T14:09:47.222Z,98152.59
2023-03-18T14:12:21.756Z,98145.97
2023-03-18T14:15:06.159Z,98140.34
2023-03-18T14:17:48.807Z,98134.97
2023-03-18T14:20:27.275Z,98142.16
2023-03-18T14:22:58.782Z,98135.03
2023-03-18T14:25:43.474Z,98134.25
2023-03-18T14:28:20.987Z,98137.13
2023-03-18T14:31:14.653Z,98131.56
2023-03-18T14:33:54.141Z,98142.00
2023-03-18T14:36:40.658Z,98131.34
2023-03-18T14:39:15.302Z,98129.81
2023-03-18T14:41:46.734Z,98136.13
2023-03-18T14:44:23.176Z,98136.19
2023-03-18T14:46:56.335Z,98122.56
2023-03-18T14:49:35.927Z,98120.44
2023-03-18T14:52:14.200Z,98120.03
2023-03-18T14:54:46.118Z,98115.94
2023-03-18T14:57:14.241Z,98111.41
2023-03-18T14:59:42.960Z,98111.13
2023-03-18T15:02:23.805Z,98113.31
2023-03-18T15:04:54.525Z,98111.44
2023-03-18T15:07:26.652Z,98100.13
2023-03-18T15:09:57.060Z,98100.06
2023-03-18T15:12:30.753Z,98103.75
2023-03-18T15:14:58.986Z,98109.28
2023-03-18T15:17:28.480Z,98107.91
2023-03-18T15:20:00.435Z,98113.72
2023-03-18T15:22:32.357Z,98117.78
2023-03-18T15:25:08.495Z,98121.94
2023-03-18T15:27:37.673Z,98118.03
2023-03-18T15:30:11.640Z,98123.66
2023-03-18T15:32:46.149Z,98121.06
2023-03-18T15:35:18.452Z,98120.16
2023-03-18T15:37:48.179Z,98112.47
2023-03-18T15:40:28.294Z,98118.16
2023-03-18T15:42:58.197Z,98116.19
2023-03-18T15:45:29.671Z,98116.75
2023-03-18T15:47:59.501Z,98106.44
2023-03-18T15:50:30.344Z,98109.78
2023-03-18T15:53:21.691Z,98118.31
2023-03-18T15:55:53.079Z,98112.41
2023-03-18T15:58:26.289Z,98114.50
2023-03-18T16:00:56.394Z,98111.44
2023-03-18T16:03:26.476Z,98128.28
2023-03-18T16:05:56.962Z,98118.97
2023-03-18T16:08:26.042Z,98124.31
2023-03-18T16:10:58.601Z,98124.34
2023-03-18T16:13:29.804Z,98130.69
2023-03-18T16:15:58.422Z,98136.91
2023-03-18T16:18:27.207Z,98140.81
2023-03-18T16:20:55.165Z,98137.53
2023-03-18T16:23:23.242Z,98138.38
2023-03-18T16:25:54.528Z,98136.22
2023-03-18T16:28:25.301Z,98143.22
2023-03-18T16:30:56.074Z,98147.72
2023-03-18T16:33:26.206Z,98152.34
2023-03-18T16:35:58.234Z,98156.34
2023-03-18T16:38:28.415Z,98149.78
2023-03-18T16:40:59.196Z,98166.00
2023-03-18T16:43:32.168Z,98167.91
2023-03-18T16:46:03.860Z,98171.38
2023-03-18T16:48:37.686Z,98170.44
2023-03-18T16:51:09.607Z,98178.41
2023-03-18T16:53:38.321Z,98173.97
2023-03-18T16:56:17.029Z,98182.91
2023-03-18T16:58:48.212Z,98175.69
2023-03-18T17:01:26.644Z,98185.22
2023-03-18T17:03:58.506Z,98192.25
2023-03-18T17:06:29.489Z,98192.63
2023-03-18T17:08:58.523Z,98189.56
2023-03-18T17:11:29.536Z,98182.78
2023-03-18T17:14:01.278Z,98196.53
2023-03-18T17:16:32.016Z,98198.38
2023-03-18T17:19:23.179Z,98199.00
2023-03-18T17:22:22.782Z,98209.44
2023-03-18T17:29:29.482Z,98209.25
2023-03-18T17:31:58.237Z,98210.84
2023-03-18T17:34:27.575Z,98215.88
2023-03-18T17:36:56.565Z,98218.28
2023-03-18T17:42:43.997Z,98226.56
2023-03-18T17:45:24.562Z,98226.56
2023-03-18T17:48:19.895Z,98237.03
2023-03-18T17:50:49.994Z,98227.88
2023-03-18T17:53:40.195Z,98231.63
2023-03-18T17:56:17.285Z,98233.72
2023-03-18T17:58:48.036Z,98239.31
2023-03-18T18:01:30.363Z,98239.66
2023-03-18T18:04:26.151Z,98240.38
2023-03-18T18:06:54.420Z,98242.06
2023-03-18T18:09:23.341Z,98230.69
2023-03-18T18:11:51.396Z,98236.88
2023-03-18T18:14:22.590Z,98233.72
2023-03-18T18:16:53.580Z,98238.22
2023-03-18T18:19:22.902Z,98231.03
2023-03-18T18:21:51.556Z,98236.22
2023-03-18T18:24:26.958Z,98236.63
2023-03-18T18:26:55.554Z,98232.91
2023-03-18T18:29:27.035Z,98240.69
2023-03-18T18:31:58.921Z,98246.72
2023-03-18T18:34:26.740Z,98242.63
2023-03-18T18:36:54.693Z,98241.34
2023-03-18T18:39:22.678Z,98246.34
2023-03-18T18:41:51.194Z,98258.88
2023-03-18T18:44:19.117Z,98244.50
2023-03-18T18:46:47.168Z,98249.13
2023-03-18T18:49:22.312Z,98238.66
2023-03-18T18:51:50.641Z,98251.34
2023-03-18T18:54:19.567Z,98254.16
2023-03-18T18:56:48.671Z,98257.00
2023-03-18T18:59:24.802Z,98252.00
2023-03-18T19:01:52.995Z,98256.69
2023-03-18T19:04:24.941Z,98244.97
2023-03-18T19:06:54.821Z,98250.94
2023-03-18T19:09:25.906Z,98251.09
2023-03-18T19:11:56.146Z,98252.13
2023-03-18T19:14:26.656Z,98249.09
2023-03-18T19:16:58.363Z,98251.00
2023-03-18T19:19:30.118Z,98255.34
2023-03-18T19:21:58.864Z,98253.44
2023-03-18T19:24:32.479Z,98253.31
2023-03-18T19:27:04.467Z,98250.28
2023-03-18T19:29:33.196Z,98257.41
2023-03-18T19:32:01.448Z,98258.47
2023-03-18T19:34:34.119Z,98259.91
2023-03-18T19:37:05.828Z,98264.38
2023-03-18T19:39:35.037Z,98265.34
2023-03-18T19:42:02.957Z,98268.47
2023-03-18T19:44:31.011Z,98266.88
2023-03-18T19:47:01.342Z,98281.09
2023-03-18T19:49:40.961Z,98276.38
2023-03-18T19:52:19.640Z,98280.88
2023-03-18T19:54:50.444Z,98275.63
2023-03-18T19:57:28.119Z,98276.75
2023-03-18T19:59:57.942Z,98281.75
2023-03-18T20:02:57.552Z,98276.16
2023-03-18T20:05:27.693Z,98291.25
2023-03-18T20:08:05.698Z,98287.75
2023-03-18T20:10:34.708Z,98291.72
2023-03-18T20:13:04.311Z,98294.66
2023-03-18T20:15:36.198Z,98297.63
2023-03-18T20:18:23.884Z,98297.53
2023-03-18T20:21:35.421Z,98305.34
2023-03-18T20:24:09.076Z,98309.59
2023-03-18T20:26:54.578Z,98308.91
2023-03-18T20:29:25.396Z,98310.16
2023-03-18T20:32:05.214Z,98302.06
2023-03-18T20:34:50.045Z,98305.56
2023-03-18T20:37:31.972Z,98308.78
2023-03-18T20:40:01.153Z,98312.19
2023-03-18T20:42:31.806Z,98316.09
2023-03-18T20:45:00.537Z,98310.78
2023-03-18T20:47:28.711Z,98312.47
2023-03-18T20:49:56.747Z,98316.09
2023-03-18T20:52:29.897Z,98314.69
2023-03-18T20:54:59.152Z,98314.69
2023-03-18T20:57:28.183Z,98320.44
2023-03-18T20:59:59.037Z,98317.50
2023-03-18T21:02:31.235Z,98320.59
2023-03-18T21:05:01.017Z,98325.19
2023-03-18T21:07:32.471Z,98324.91
2023-03-18T21:10:00.723Z,98322.13
2023-03-18T21:12:29.009Z,98319.44
2023-03-18T21:14:57.020Z,98317.31
2023-03-18T21:17:26.496Z,98315.38
2023-03-18T21:20:00.662Z,98308.56
2023-03-18T21:22:34.454Z,98313.00
2023-03-18T21:25:03.371Z,98316.41
2023-03-18T21:27:31.469Z,98317.50
2023-03-18T21:29:59.286Z,98316.34
2023-03-18T21:32:29.787Z,98322.22
2023-03-18T21:34:57.880Z,98323.88
2023-03-18T21:37:28.294Z,98323.63
2023-03-18T21:39:58.130Z,98320.97
2023-03-18T21:42:28.380Z,98317.31
2023-03-18T21:44:57.422Z,98312.16
2023-03-18T21:47:27.481Z,98315.09
2023-03-18T21:49:55.508Z,98322.19
2023-03-18T21:52:29.624Z,98325.00
2023-03-18T21:55:00.094Z,98332.81
2023-03-18T21:57:28.646Z,98328.72
2023-03-18T21:59:56.988Z,98326.09
2023-03-18T22:02:30.682Z,98322.72
2023-03-18T22:05:02.373Z,98332.06
2023-03-18T22:07:32.060Z,98333.34
2023-03-18T22:10:01.894Z,98324.03
2023-03-18T22:12:31.313Z,98326.53
2023-03-18T22:15:00.872Z,98324.56
2023-03-18T22:17:30.962Z,98329.28
2023-03-18T22:20:01.316Z,98328.19
2023-03-18T22:22:36.701Z,98330.31
2023-03-18T22:25:09.036Z,98332.28
2023-03-18T22:27:37.246Z,98330.31
2023-03-18T22:30:06.075Z,98341.34
2023-03-18T22:32:39.105Z,98338.00
2023-03-18T22:35:13.779Z,98341.88
2023-03-18T22:37:42.154Z,98345.31
2023-03-18T22:40:18.047Z,98352.84
2023-03-18T22:42:47.506Z,98343.47
2023-03-18T22:45:24.305Z,98347.41
2023-03-18T22:47:53.825Z,98355.06
2023-03-18T22:50:22.829Z,98348.00
2023-03-18T22:52:53.079Z,98345.16
2023-03-18T22:55:24.821Z,98355.56
2023-03-18T22:57:53.170Z,98355.91
2023-03-18T23:00:26.154Z,98352.97
2023-03-18T23:02:55.514Z,98348.00
2023-03-18T23:05:24.940Z,98351.25
2023-03-18T23:07:54.174Z,98355.28
2023-03-18T23:10:24.686Z,98358.94
2023-03-18T23:12:52.970Z,98351.97
2023-03-18T23:15:23.784Z,98348.41
2023-03-18T23:17:51.649Z,98352.66
2023-03-18T23:20:20.060Z,98353.47
2023-03-18T23:22:47.969Z,98357.09
2023-03-18T23:25:18.000Z,98365.03
2023-03-18T23:27:48.219Z,98365.13
2023-03-18T23:30:16.844Z,98366.84
2023-03-18T23:32:45.616Z,98370.81
2023-03-18T23:35:14.456Z,98360.50
2023-03-18T23:37:42.734Z,98367.69
2023-03-18T23:40:11.721Z,98365.78
2023-03-18T23:42:39.585Z,98365.38
2023-03-18T23:45:10.141Z,98362.34
2023-03-18T23:47:38.331Z,98370.41
2023-03-18T23:50:07.661Z,98371.31
2023-03-18T23:52:37.150Z,98375.53
2023-03-18T23:55:14.689Z,98373.34
2023-03-18T23:57:51.145Z,98375.53
